Stuart, FL

11:50 PM EDT on August 28, 2014 (GMT -0400)
Witham | Change Station
CLOSE
Current Station
Airport
Location: Stuart,
Elevation: 20 ft
Nearby Weather Stations

Elev 20 ft 27.18 °N, 80.22 °W | Updated 15 minutes ago

Clear
Clear
77 °F
Feels Like 77 °F
N
0
Wind Variable Wind from North

Today
High -- | Low -- °F
--% Chance of Precip.
Yesterday
High -- | Low -- °F
Precip. -- in
6:58 AM 7:45 PM
Waxing Crescent, 11% visible
Pressure 30.05 in
Visibility 10.0 miles
Clouds Clear
Dew Point 72 °F
Humidity 83%
Rainfall 0.00 in
Snow Depth Not available.
UV 0 out of 12
Pollen 5.00 out of 12
Air Quality Not available.
Flu Activity Not available.
METAR KSUA 290335Z AUTO 00000KT 10SM CLR 25/22 A3005 RMK AO2 LTG DSNT E

More Conditions Fewer Conditions

Pressure 30.05 in
Visibility 10.0 miles
Clouds Clear
Dew Point 72 °F
Humidity 83%
Rainfall 0.00 in
Snow Depth Not available.
UV 0 out of 12
Pollen 5.00 out of 12
Air Quality Not available.
Flu Activity Not available.
METAR KSUA 290335Z AUTO 00000KT 10SM CLR 25/22 A3005 RMK AO2 LTG DSNT E

More Conditions Fewer Conditions

Nowcast | as of 10:40 PM EDT on August 28, 2014

The line of showers and storms that moved north through the Treasure Coast this evening has begun to slowly diminish as it moves through far southern Osceola and Indian River counties late this evening. A few showers and possibly a storm will reach into far southern Brevard south of Melbourne Beach...with most activity diminishing or moving offshore just after midnight. Additional details...including graphics are available online at: http://www.Srh.NOAA.Gov/mlb/blog.Php

×

10-Day Weather Forecast

Almanac

Astronomy

Aug. 28, 2014 Rise Set
Actual Time 6:58 AM EDT 7:45 PM EDT
Civil Twilight 6:34 AM EDT 8:09 PM EDT
Nautical Twilight 6:06 AM EDT 8:37 PM EDT
Astronomical Twilight 5:37 AM EDT 9:05 PM EDT
Moon 9:30 AM EDT (8/28) 9:30 PM EDT (8/28)
Length of Visible Light 13h 34m
Length of Day
12h 47m
Tomorrow will be 1m 31s shorter.
Waxing Crescent, 11% of the Moon is Illuminated
Today
Waxing Crescent
Sep 2
First Quarter
Sep 8
Full
Sep 15
Last Quarter
Sep 24
New

Today's Extremes

State Highs State Lows

Community

WunderPhotos

Upload Photos

1,748,182 photos uploaded!

Nearby

Snow Depth

Station Depth Elevation
No new snow has been reported.

Earthquake Activity

City Distance Mag. Time & Date
No recent earthquake activity has been reported nearby.
Minimum magnitude displayed is 2.5.

Coastal Water Temperatures

Place Temperature
Lake Worth, FL 87.1 °F
Trident Pier, FL 84.9 °F
Virginia Key, FL 87.1 °F

Nearby Weather Stations